sensor_id;sensor_type;location;lat;lon;timestamp;P1;durP1;ratioP1;P2;durP2;ratioP2
68229;SDS011;55048;52.220;5.160;2023-04-28T00:01:59;5.75;;;2.92;;
68229;SDS011;55048;52.220;5.160;2023-04-28T00:04:25;4.75;;;2.88;;
68229;SDS011;55048;52.220;5.160;2023-04-28T00:06:51;14.85;;;2.83;;
68229;SDS011;55048;52.220;5.160;2023-04-28T00:09:16;6.05;;;2.80;;
68229;SDS011;55048;52.220;5.160;2023-04-28T00:11:43;8.40;;;2.83;;
68229;SDS011;55048;52.220;5.160;2023-04-28T00:14:11;6.28;;;2.75;;
68229;SDS011;55048;52.220;5.160;2023-04-28T00:16:37;5.43;;;2.67;;
68229;SDS011;55048;52.220;5.160;2023-04-28T00:19:02;8.32;;;2.70;;
68229;SDS011;55048;52.220;5.160;2023-04-28T00:21:28;6.20;;;2.40;;
68229;SDS011;55048;52.220;5.160;2023-04-28T00:23:53;5.95;;;2.42;;
68229;SDS011;55048;52.220;5.160;2023-04-28T00:26:19;3.67;;;2.50;;
68229;SDS011;55048;52.220;5.160;2023-04-28T00:28:45;3.25;;;2.67;;
68229;SDS011;55048;52.220;5.160;2023-04-28T00:31:11;4.07;;;2.60;;
68229;SDS011;55048;52.220;5.160;2023-04-28T00:33:38;4.68;;;2.45;;
68229;SDS011;55048;52.220;5.160;2023-04-28T00:36:04;5.20;;;2.55;;
68229;SDS011;55048;52.220;5.160;2023-04-28T00:38:30;4.43;;;2.30;;
68229;SDS011;55048;52.220;5.160;2023-04-28T00:40:55;7.20;;;2.38;;
68229;SDS011;55048;52.220;5.160;2023-04-28T00:43:21;4.68;;;2.80;;
68229;SDS011;55048;52.220;5.160;2023-04-28T00:45:47;4.35;;;2.30;;
68229;SDS011;55048;52.220;5.160;2023-04-28T00:48:16;8.25;;;2.38;;
68229;SDS011;55048;52.220;5.160;2023-04-28T00:50:43;6.72;;;2.25;;
68229;SDS011;55048;52.220;5.160;2023-04-28T00:53:10;5.07;;;2.22;;
68229;SDS011;55048;52.220;5.160;2023-04-28T00:55:35;5.00;;;2.03;;
68229;SDS011;55048;52.220;5.160;2023-04-28T00:58:02;6.70;;;2.25;;
68229;SDS011;55048;52.220;5.160;2023-04-28T01:00:29;4.32;;;2.72;;
68229;SDS011;55048;52.220;5.160;2023-04-28T01:02:55;5.25;;;2.45;;
68229;SDS011;55048;52.220;5.160;2023-04-28T01:05:22;7.32;;;2.25;;
68229;SDS011;55048;52.220;5.160;2023-04-28T01:07:50;5.10;;;1.83;;
68229;SDS011;55048;52.220;5.160;2023-04-28T01:10:15;5.18;;;2.55;;
68229;SDS011;55048;52.220;5.160;2023-04-28T01:12:41;11.57;;;2.80;;
68229;SDS011;55048;52.220;5.160;2023-04-28T01:15:07;5.20;;;2.00;;
68229;SDS011;55048;52.220;5.160;2023-04-28T01:17:36;4.63;;;2.25;;
68229;SDS011;55048;52.220;5.160;2023-04-28T01:20:02;6.93;;;2.47;;
68229;SDS011;55048;52.220;5.160;2023-04-28T01:22:28;5.03;;;2.40;;
68229;SDS011;55048;52.220;5.160;2023-04-28T01:24:54;4.78;;;2.08;;
68229;SDS011;55048;52.220;5.160;2023-04-28T01:27:22;7.05;;;1.90;;
68229;SDS011;55048;52.220;5.160;2023-04-28T01:29:47;5.40;;;2.53;;
68229;SDS011;55048;52.220;5.160;2023-04-28T01:32:13;11.88;;;1.98;;
68229;SDS011;55048;52.220;5.160;2023-04-28T01:34:38;6.20;;;2.17;;
68229;SDS011;55048;52.220;5.160;2023-04-28T01:37:04;6.50;;;2.58;;
68229;SDS011;55048;52.220;5.160;2023-04-28T01:39:30;7.57;;;2.17;;
68229;SDS011;55048;52.220;5.160;2023-04-28T01:41:55;4.65;;;2.00;;
68229;SDS011;55048;52.220;5.160;2023-04-28T01:44:21;5.18;;;2.30;;
68229;SDS011;55048;52.220;5.160;2023-04-28T01:46:47;3.53;;;2.35;;
68229;SDS011;55048;52.220;5.160;2023-04-28T01:49:12;4.78;;;2.47;;
68229;SDS011;55048;52.220;5.160;2023-04-28T01:51:39;6.63;;;2.22;;
68229;SDS011;55048;52.220;5.160;2023-04-28T01:54:06;6.38;;;2.45;;
68229;SDS011;55048;52.220;5.160;2023-04-28T01:56:31;4.82;;;2.47;;
68229;SDS011;55048;52.220;5.160;2023-04-28T01:58:58;8.50;;;2.20;;
68229;SDS011;55048;52.220;5.160;2023-04-28T02:01:23;6.25;;;1.83;;
68229;SDS011;55048;52.220;5.160;2023-04-28T02:03:49;2.90;;;2.08;;
68229;SDS011;55048;52.220;5.160;2023-04-28T02:06:15;5.63;;;1.90;;
68229;SDS011;55048;52.220;5.160;2023-04-28T02:08:40;2.78;;;1.90;;
68229;SDS011;55048;52.220;5.160;2023-04-28T02:11:06;5.22;;;2.35;;
68229;SDS011;55048;52.220;5.160;2023-04-28T02:13:31;6.13;;;1.95;;
68229;SDS011;55048;52.220;5.160;2023-04-28T02:15:59;3.72;;;1.92;;
68229;SDS011;55048;52.220;5.160;2023-04-28T02:18:25;4.40;;;2.08;;
68229;SDS011;55048;52.220;5.160;2023-04-28T02:20:50;5.75;;;2.45;;
68229;SDS011;55048;52.220;5.160;2023-04-28T02:23:16;5.65;;;1.92;;
68229;SDS011;55048;52.220;5.160;2023-04-28T02:25:41;4.03;;;1.90;;
68229;SDS011;55048;52.220;5.160;2023-04-28T02:28:10;6.07;;;2.08;;
68229;SDS011;55048;52.220;5.160;2023-04-28T02:30:37;3.80;;;2.03;;
68229;SDS011;55048;52.220;5.160;2023-04-28T02:33:02;2.80;;;2.20;;
68229;SDS011;55048;52.220;5.160;2023-04-28T02:35:28;3.92;;;1.85;;
68229;SDS011;55048;52.220;5.160;2023-04-28T02:37:53;8.27;;;2.20;;
68229;SDS011;55048;52.220;5.160;2023-04-28T02:40:19;5.60;;;2.22;;
68229;SDS011;55048;52.220;5.160;2023-04-28T02:42:44;5.57;;;2.60;;
68229;SDS011;55048;52.220;5.160;2023-04-28T02:45:10;6.47;;;2.20;;
68229;SDS011;55048;52.220;5.160;2023-04-28T02:47:35;6.50;;;2.47;;
68229;SDS011;55048;52.220;5.160;2023-04-28T02:50:01;6.55;;;2.35;;
68229;SDS011;55048;52.220;5.160;2023-04-28T02:52:27;4.15;;;1.92;;
68229;SDS011;55048;52.220;5.160;2023-04-28T02:54:52;4.90;;;2.38;;
68229;SDS011;55048;52.220;5.160;2023-04-28T02:57:21;4.75;;;2.28;;
68229;SDS011;55048;52.220;5.160;2023-04-28T02:59:46;6.30;;;1.80;;
68229;SDS011;55048;52.220;5.160;2023-04-28T03:02:12;6.97;;;2.30;;
68229;SDS011;55048;52.220;5.160;2023-04-28T03:04:37;4.10;;;2.17;;
68229;SDS011;55048;52.220;5.160;2023-04-28T03:07:03;4.70;;;2.47;;
68229;SDS011;55048;52.220;5.160;2023-04-28T03:09:28;7.18;;;2.30;;
68229;SDS011;55048;52.220;5.160;2023-04-28T03:11:53;3.75;;;2.38;;
68229;SDS011;55048;52.220;5.160;2023-04-28T03:14:19;4.18;;;2.65;;
68229;SDS011;55048;52.220;5.160;2023-04-28T03:16:44;3.85;;;2.33;;
68229;SDS011;55048;52.220;5.160;2023-04-28T03:19:10;7.03;;;2.53;;
68229;SDS011;55048;52.220;5.160;2023-04-28T03:21:35;4.57;;;2.78;;
68229;SDS011;55048;52.220;5.160;2023-04-28T03:24:00;8.75;;;1.98;;
68229;SDS011;55048;52.220;5.160;2023-04-28T03:26:26;5.13;;;2.30;;
68229;SDS011;55048;52.220;5.160;2023-04-28T03:28:52;5.55;;;2.58;;
68229;SDS011;55048;52.220;5.160;2023-04-28T03:31:17;8.70;;;3.22;;
68229;SDS011;55048;52.220;5.160;2023-04-28T03:33:43;7.60;;;2.80;;
68229;SDS011;55048;52.220;5.160;2023-04-28T03:36:14;5.00;;;2.40;;
68229;SDS011;55048;52.220;5.160;2023-04-28T03:38:40;7.75;;;2.83;;
68229;SDS011;55048;52.220;5.160;2023-04-28T03:41:05;4.95;;;2.38;;
68229;SDS011;55048;52.220;5.160;2023-04-28T03:43:53;5.28;;;2.58;;
68229;SDS011;55048;52.220;5.160;2023-04-28T03:46:28;7.10;;;3.08;;
68229;SDS011;55048;52.220;5.160;2023-04-28T03:48:54;3.83;;;2.58;;
68229;SDS011;55048;52.220;5.160;2023-04-28T03:51:20;3.13;;;2.67;;
68229;SDS011;55048;52.220;5.160;2023-04-28T03:53:46;7.32;;;2.90;;
68229;SDS011;55048;52.220;5.160;2023-04-28T03:56:11;4.95;;;3.10;;
68229;SDS011;55048;52.220;5.160;2023-04-28T03:58:37;6.47;;;2.42;;
68229;SDS011;55048;52.220;5.160;2023-04-28T04:01:03;5.47;;;2.35;;
68229;SDS011;55048;52.220;5.160;2023-04-28T04:03:29;9.00;;;2.38;;
68229;SDS011;55048;52.220;5.160;2023-04-28T04:05:55;4.20;;;2.85;;
68229;SDS011;55048;52.220;5.160;2023-04-28T04:08:20;4.28;;;2.63;;
68229;SDS011;55048;52.220;5.160;2023-04-28T04:10:47;6.50;;;2.95;;
68229;SDS011;55048;52.220;5.160;2023-04-28T04:13:13;6.30;;;2.97;;
68229;SDS011;55048;52.220;5.160;2023-04-28T04:15:39;8.43;;;2.30;;
68229;SDS011;55048;52.220;5.160;2023-04-28T04:18:05;5.10;;;2.40;;
68229;SDS011;55048;52.220;5.160;2023-04-28T04:20:48;4.10;;;2.30;;
68229;SDS011;55048;52.220;5.160;2023-04-28T04:23:14;5.50;;;2.70;;
68229;SDS011;55048;52.220;5.160;2023-04-28T04:25:40;4.70;;;2.17;;
68229;SDS011;55048;52.220;5.160;2023-04-28T04:28:07;5.40;;;2.78;;
68229;SDS011;55048;52.220;5.160;2023-04-28T04:30:32;3.45;;;2.15;;
68229;SDS011;55048;52.220;5.160;2023-04-28T04:32:58;7.35;;;2.50;;
68229;SDS011;55048;52.220;5.160;2023-04-28T04:35:23;3.92;;;1.98;;
68229;SDS011;55048;52.220;5.160;2023-04-28T04:37:49;7.45;;;2.40;;
68229;SDS011;55048;52.220;5.160;2023-04-28T04:40:15;4.00;;;2.20;;
68229;SDS011;55048;52.220;5.160;2023-04-28T04:42:46;4.15;;;2.22;;
68229;SDS011;55048;52.220;5.160;2023-04-28T04:45:16;5.93;;;2.25;;
68229;SDS011;55048;52.220;5.160;2023-04-28T04:47:42;5.13;;;2.35;;
68229;SDS011;55048;52.220;5.160;2023-04-28T04:50:08;3.28;;;2.15;;
68229;SDS011;55048;52.220;5.160;2023-04-28T04:52:33;5.50;;;2.03;;
68229;SDS011;55048;52.220;5.160;2023-04-28T04:54:59;5.53;;;2.20;;
68229;SDS011;55048;52.220;5.160;2023-04-28T04:57:24;2.72;;;1.98;;
68229;SDS011;55048;52.220;5.160;2023-04-28T05:00:04;8.73;;;2.30;;
68229;SDS011;55048;52.220;5.160;2023-04-28T05:02:30;7.25;;;2.25;;
68229;SDS011;55048;52.220;5.160;2023-04-28T05:04:56;6.25;;;2.60;;
68229;SDS011;55048;52.220;5.160;2023-04-28T05:07:21;9.07;;;2.60;;
68229;SDS011;55048;52.220;5.160;2023-04-28T05:09:47;4.32;;;2.55;;
68229;SDS011;55048;52.220;5.160;2023-04-28T05:12:13;5.72;;;2.53;;
68229;SDS011;55048;52.220;5.160;2023-04-28T05:14:38;10.65;;;2.90;;
68229;SDS011;55048;52.220;5.160;2023-04-28T05:17:04;7.93;;;2.83;;
68229;SDS011;55048;52.220;5.160;2023-04-28T05:19:35;4.20;;;2.38;;
68229;SDS011;55048;52.220;5.160;2023-04-28T05:22:01;6.47;;;2.78;;
68229;SDS011;55048;52.220;5.160;2023-04-28T05:24:27;7.63;;;2.63;;
68229;SDS011;55048;52.220;5.160;2023-04-28T05:26:52;7.38;;;2.97;;
68229;SDS011;55048;52.220;5.160;2023-04-28T05:29:19;9.45;;;3.25;;
68229;SDS011;55048;52.220;5.160;2023-04-28T05:31:45;8.90;;;3.15;;
68229;SDS011;55048;52.220;5.160;2023-04-28T05:34:11;14.88;;;3.63;;
68229;SDS011;55048;52.220;5.160;2023-04-28T05:36:36;7.55;;;3.47;;
68229;SDS011;55048;52.220;5.160;2023-04-28T05:39:03;6.65;;;3.33;;
68229;SDS011;55048;52.220;5.160;2023-04-28T05:41:29;8.52;;;3.70;;
68229;SDS011;55048;52.220;5.160;2023-04-28T05:43:54;7.75;;;4.10;;
68229;SDS011;55048;52.220;5.160;2023-04-28T05:46:20;7.50;;;3.95;;
68229;SDS011;55048;52.220;5.160;2023-04-28T05:48:45;10.35;;;4.13;;
68229;SDS011;55048;52.220;5.160;2023-04-28T05:51:12;7.72;;;3.35;;
68229;SDS011;55048;52.220;5.160;2023-04-28T05:53:37;9.43;;;4.05;;
68229;SDS011;55048;52.220;5.160;2023-04-28T05:56:03;9.18;;;4.65;;
68229;SDS011;55048;52.220;5.160;2023-04-28T05:58:30;7.28;;;4.30;;
68229;SDS011;55048;52.220;5.160;2023-04-28T06:00:56;8.82;;;4.50;;
68229;SDS011;55048;52.220;5.160;2023-04-28T06:03:22;7.63;;;3.72;;
68229;SDS011;55048;52.220;5.160;2023-04-28T06:05:47;10.40;;;4.70;;
68229;SDS011;55048;52.220;5.160;2023-04-28T06:08:13;6.20;;;3.60;;
68229;SDS011;55048;52.220;5.160;2023-04-28T06:10:39;5.50;;;4.22;;
68229;SDS011;55048;52.220;5.160;2023-04-28T06:13:04;7.30;;;4.38;;
68229;SDS011;55048;52.220;5.160;2023-04-28T06:15:31;6.38;;;4.22;;
68229;SDS011;55048;52.220;5.160;2023-04-28T06:17:57;12.43;;;4.82;;
68229;SDS011;55048;52.220;5.160;2023-04-28T06:20:23;6.65;;;4.35;;
68229;SDS011;55048;52.220;5.160;2023-04-28T06:22:48;9.10;;;3.97;;
68229;SDS011;55048;52.220;5.160;2023-04-28T06:25:14;9.27;;;4.72;;
68229;SDS011;55048;52.220;5.160;2023-04-28T06:27:43;11.97;;;5.20;;
68229;SDS011;55048;52.220;5.160;2023-04-28T06:30:09;9.40;;;5.22;;
68229;SDS011;55048;52.220;5.160;2023-04-28T06:32:34;7.28;;;5.25;;
68229;SDS011;55048;52.220;5.160;2023-04-28T06:35:01;7.13;;;4.63;;
68229;SDS011;55048;52.220;5.160;2023-04-28T06:37:26;9.05;;;5.47;;
68229;SDS011;55048;52.220;5.160;2023-04-28T06:39:51;15.93;;;5.55;;
68229;SDS011;55048;52.220;5.160;2023-04-28T06:42:17;8.23;;;5.45;;
68229;SDS011;55048;52.220;5.160;2023-04-28T06:44:51;10.38;;;5.32;;
68229;SDS011;55048;52.220;5.160;2023-04-28T06:47:16;10.80;;;5.82;;
68229;SDS011;55048;52.220;5.160;2023-04-28T06:49:42;13.32;;;5.90;;
68229;SDS011;55048;52.220;5.160;2023-04-28T06:52:08;9.10;;;6.38;;
68229;SDS011;55048;52.220;5.160;2023-04-28T06:54:34;10.30;;;5.95;;
68229;SDS011;55048;52.220;5.160;2023-04-28T06:56:59;11.23;;;5.57;;
68229;SDS011;55048;52.220;5.160;2023-04-28T06:59:25;13.98;;;6.50;;
68229;SDS011;55048;52.220;5.160;2023-04-28T07:01:50;9.25;;;6.13;;
68229;SDS011;55048;52.220;5.160;2023-04-28T07:04:15;10.65;;;6.00;;
68229;SDS011;55048;52.220;5.160;2023-04-28T07:06:41;10.73;;;6.45;;
68229;SDS011;55048;52.220;5.160;2023-04-28T07:09:06;9.00;;;6.18;;
68229;SDS011;55048;52.220;5.160;2023-04-28T07:11:32;15.88;;;6.43;;
68229;SDS011;55048;52.220;5.160;2023-04-28T07:13:57;10.82;;;6.65;;
68229;SDS011;55048;52.220;5.160;2023-04-28T07:16:23;12.20;;;6.63;;
68229;SDS011;55048;52.220;5.160;2023-04-28T07:18:49;11.60;;;6.93;;
68229;SDS011;55048;52.220;5.160;2023-04-28T07:21:14;14.68;;;7.03;;
68229;SDS011;55048;52.220;5.160;2023-04-28T07:23:40;10.27;;;7.13;;
68229;SDS011;55048;52.220;5.160;2023-04-28T07:26:06;11.05;;;6.40;;
68229;SDS011;55048;52.220;5.160;2023-04-28T07:28:32;11.60;;;7.00;;
68229;SDS011;55048;52.220;5.160;2023-04-28T07:30:58;12.75;;;6.90;;
68229;SDS011;55048;52.220;5.160;2023-04-28T07:33:23;9.90;;;6.85;;
68229;SDS011;55048;52.220;5.160;2023-04-28T07:35:49;13.20;;;6.97;;
68229;SDS011;55048;52.220;5.160;2023-04-28T07:38:16;9.80;;;7.38;;
68229;SDS011;55048;52.220;5.160;2023-04-28T07:40:42;12.15;;;7.38;;
68229;SDS011;55048;52.220;5.160;2023-04-28T07:43:08;15.82;;;7.53;;
68229;SDS011;55048;52.220;5.160;2023-04-28T07:45:36;11.50;;;7.70;;
68229;SDS011;55048;52.220;5.160;2023-04-28T07:48:03;12.23;;;7.32;;
68229;SDS011;55048;52.220;5.160;2023-04-28T07:50:29;13.40;;;7.82;;
68229;SDS011;55048;52.220;5.160;2023-04-28T07:52:54;12.55;;;7.43;;
68229;SDS011;55048;52.220;5.160;2023-04-28T07:55:19;12.10;;;7.75;;
68229;SDS011;55048;52.220;5.160;2023-04-28T07:57:45;16.13;;;8.07;;
68229;SDS011;55048;52.220;5.160;2023-04-28T08:00:10;14.40;;;8.45;;
68229;SDS011;55048;52.220;5.160;2023-04-28T08:02:39;17.70;;;8.70;;
68229;SDS011;55048;52.220;5.160;2023-04-28T08:05:04;15.65;;;8.77;;
68229;SDS011;55048;52.220;5.160;2023-04-28T08:07:31;13.13;;;8.07;;
68229;SDS011;55048;52.220;5.160;2023-04-28T08:09:57;11.38;;;8.10;;
68229;SDS011;55048;52.220;5.160;2023-04-28T08:12:22;11.80;;;8.00;;
68229;SDS011;55048;52.220;5.160;2023-04-28T08:14:48;12.20;;;8.00;;
68229;SDS011;55048;52.220;5.160;2023-04-28T08:17:13;12.70;;;8.20;;
68229;SDS011;55048;52.220;5.160;2023-04-28T08:19:39;14.18;;;8.85;;
68229;SDS011;55048;52.220;5.160;2023-04-28T08:22:04;15.60;;;8.50;;
68229;SDS011;55048;52.220;5.160;2023-04-28T08:24:31;15.50;;;8.27;;
68229;SDS011;55048;52.220;5.160;2023-04-28T08:27:03;12.30;;;8.85;;
68229;SDS011;55048;52.220;5.160;2023-04-28T08:29:28;13.05;;;8.40;;
68229;SDS011;55048;52.220;5.160;2023-04-28T08:31:55;10.98;;;8.70;;
68229;SDS011;55048;52.220;5.160;2023-04-28T08:34:20;12.43;;;8.93;;
68229;SDS011;55048;52.220;5.160;2023-04-28T08:36:45;15.85;;;9.65;;
68229;SDS011;55048;52.220;5.160;2023-04-28T08:39:26;12.85;;;9.02;;
68229;SDS011;55048;52.220;5.160;2023-04-28T08:42:06;13.63;;;8.43;;
68229;SDS011;55048;52.220;5.160;2023-04-28T08:44:43;18.17;;;9.40;;
68229;SDS011;55048;52.220;5.160;2023-04-28T08:47:18;11.90;;;9.60;;
68229;SDS011;55048;52.220;5.160;2023-04-28T08:50:05;18.02;;;10.10;;
68229;SDS011;55048;52.220;5.160;2023-04-28T08:52:36;16.05;;;10.00;;
68229;SDS011;55048;52.220;5.160;2023-04-28T08:55:07;15.05;;;9.77;;
68229;SDS011;55048;52.220;5.160;2023-04-28T08:57:54;15.80;;;9.98;;
68229;SDS011;55048;52.220;5.160;2023-04-28T09:00:38;17.48;;;10.93;;
68229;SDS011;55048;52.220;5.160;2023-04-28T09:03:41;17.90;;;11.10;;
68229;SDS011;55048;52.220;5.160;2023-04-28T09:06:07;15.48;;;10.68;;
68229;SDS011;55048;52.220;5.160;2023-04-28T09:08:32;14.50;;;10.57;;
68229;SDS011;55048;52.220;5.160;2023-04-28T09:11:07;19.63;;;10.75;;
68229;SDS011;55048;52.220;5.160;2023-04-28T09:13:35;16.77;;;11.05;;
68229;SDS011;55048;52.220;5.160;2023-04-28T09:16:01;17.92;;;11.13;;
68229;SDS011;55048;52.220;5.160;2023-04-28T09:18:28;20.25;;;11.45;;
68229;SDS011;55048;52.220;5.160;2023-04-28T09:21:06;17.52;;;10.70;;
68229;SDS011;55048;52.220;5.160;2023-04-28T09:23:45;18.83;;;11.80;;
68229;SDS011;55048;52.220;5.160;2023-04-28T09:26:15;19.23;;;12.18;;
68229;SDS011;55048;52.220;5.160;2023-04-28T09:28:44;16.35;;;12.25;;
68229;SDS011;55048;52.220;5.160;2023-04-28T09:31:22;21.98;;;12.75;;
68229;SDS011;55048;52.220;5.160;2023-04-28T09:33:58;17.88;;;12.18;;
68229;SDS011;55048;52.220;5.160;2023-04-28T09:36:28;17.60;;;12.77;;
68229;SDS011;55048;52.220;5.160;2023-04-28T09:39:00;18.85;;;13.75;;
68229;SDS011;55048;52.220;5.160;2023-04-28T09:41:38;19.33;;;13.05;;
68229;SDS011;55048;52.220;5.160;2023-04-28T09:46:43;19.95;;;13.02;;
68229;SDS011;55048;52.220;5.160;2023-04-28T09:49:11;18.80;;;13.75;;
68229;SDS011;55048;52.220;5.160;2023-04-28T09:51:37;20.10;;;13.77;;
68229;SDS011;55048;52.220;5.160;2023-04-28T09:54:05;19.10;;;14.38;;
68229;SDS011;55048;52.220;5.160;2023-04-28T09:56:37;18.58;;;14.48;;
68229;SDS011;55048;52.220;5.160;2023-04-28T09:59:13;20.02;;;14.10;;
68229;SDS011;55048;52.220;5.160;2023-04-28T10:01:39;17.02;;;12.13;;
68229;SDS011;55048;52.220;5.160;2023-04-28T10:04:06;21.33;;;14.25;;
68229;SDS011;55048;52.220;5.160;2023-04-28T10:06:33;19.02;;;13.68;;
68229;SDS011;55048;52.220;5.160;2023-04-28T10:09:05;20.55;;;13.77;;
68229;SDS011;55048;52.220;5.160;2023-04-28T10:11:36;21.13;;;13.20;;
68229;SDS011;55048;52.220;5.160;2023-04-28T10:14:10;15.90;;;12.80;;
68229;SDS011;55048;52.220;5.160;2023-04-28T10:16:36;17.90;;;11.88;;
68229;SDS011;55048;52.220;5.160;2023-04-28T10:19:05;15.65;;;11.90;;
68229;SDS011;55048;52.220;5.160;2023-04-28T10:21:33;19.67;;;13.02;;
68229;SDS011;55048;52.220;5.160;2023-04-28T10:24:09;15.68;;;11.52;;
68229;SDS011;55048;52.220;5.160;2023-04-28T10:29:27;17.67;;;12.73;;
68229;SDS011;55048;52.220;5.160;2023-04-28T10:34:43;17.58;;;13.20;;
68229;SDS011;55048;52.220;5.160;2023-04-28T10:37:09;17.90;;;11.85;;
68229;SDS011;55048;52.220;5.160;2023-04-28T10:39:35;14.82;;;12.77;;
68229;SDS011;55048;52.220;5.160;2023-04-28T10:42:01;18.92;;;13.73;;
68229;SDS011;55048;52.220;5.160;2023-04-28T10:47:04;18.38;;;13.55;;
68229;SDS011;55048;52.220;5.160;2023-04-28T10:58:29;18.67;;;13.32;;
68229;SDS011;55048;52.220;5.160;2023-04-28T11:00:39;16.65;;;13.38;;
68229;SDS011;55048;52.220;5.160;2023-04-28T11:03:05;17.95;;;13.10;;
68229;SDS011;55048;52.220;5.160;2023-04-28T11:05:30;16.63;;;13.10;;
68229;SDS011;55048;52.220;5.160;2023-04-28T11:11:24;17.48;;;11.52;;
68229;SDS011;55048;52.220;5.160;2023-04-28T11:13:41;19.02;;;12.38;;
68229;SDS011;55048;52.220;5.160;2023-04-28T11:16:07;15.35;;;11.02;;
68229;SDS011;55048;52.220;5.160;2023-04-28T11:18:47;15.35;;;11.73;;
68229;SDS011;55048;52.220;5.160;2023-04-28T11:21:29;18.02;;;12.00;;
68229;SDS011;55048;52.220;5.160;2023-04-28T11:23:56;18.55;;;13.18;;
68229;SDS011;55048;52.220;5.160;2023-04-28T11:26:22;13.05;;;11.00;;
68229;SDS011;55048;52.220;5.160;2023-04-28T11:28:52;15.27;;;11.68;;
68229;SDS011;55048;52.220;5.160;2023-04-28T11:31:20;14.63;;;10.25;;
68229;SDS011;55048;52.220;5.160;2023-04-28T11:36:36;13.27;;;9.43;;
68229;SDS011;55048;52.220;5.160;2023-04-28T11:39:04;13.55;;;9.75;;
68229;SDS011;55048;52.220;5.160;2023-04-28T11:41:31;12.63;;;9.63;;
68229;SDS011;55048;52.220;5.160;2023-04-28T11:44:00;9.43;;;6.93;;
68229;SDS011;55048;52.220;5.160;2023-04-28T11:46:33;11.15;;;7.80;;
68229;SDS011;55048;52.220;5.160;2023-04-28T11:49:02;10.57;;;6.88;;
68229;SDS011;55048;52.220;5.160;2023-04-28T11:51:38;7.05;;;6.28;;
68229;SDS011;55048;52.220;5.160;2023-04-28T11:54:04;8.85;;;5.88;;
68229;SDS011;55048;52.220;5.160;2023-04-28T11:56:42;7.18;;;5.47;;
68229;SDS011;55048;52.220;5.160;2023-04-28T11:59:09;7.28;;;5.68;;
68229;SDS011;55048;52.220;5.160;2023-04-28T12:01:55;9.02;;;5.43;;
68229;SDS011;55048;52.220;5.160;2023-04-28T12:04:26;11.15;;;6.85;;
68229;SDS011;55048;52.220;5.160;2023-04-28T12:07:12;6.75;;;6.05;;
68229;SDS011;55048;52.220;5.160;2023-04-28T12:09:40;6.57;;;5.70;;
68229;SDS011;55048;52.220;5.160;2023-04-28T12:12:10;8.55;;;7.28;;
68229;SDS011;55048;52.220;5.160;2023-04-28T12:14:53;7.78;;;7.07;;
68229;SDS011;55048;52.220;5.160;2023-04-28T12:17:27;6.30;;;5.30;;
68229;SDS011;55048;52.220;5.160;2023-04-28T12:19:56;7.38;;;5.90;;
68229;SDS011;55048;52.220;5.160;2023-04-28T12:22:23;8.90;;;6.80;;
68229;SDS011;55048;52.220;5.160;2023-04-28T12:25:02;9.38;;;6.43;;
68229;SDS011;55048;52.220;5.160;2023-04-28T12:27:27;7.75;;;6.22;;
68229;SDS011;55048;52.220;5.160;2023-04-28T12:29:53;6.43;;;5.82;;
68229;SDS011;55048;52.220;5.160;2023-04-28T12:32:35;7.80;;;5.82;;
68229;SDS011;55048;52.220;5.160;2023-04-28T12:35:02;6.05;;;5.47;;
68229;SDS011;55048;52.220;5.160;2023-04-28T12:37:29;5.50;;;5.00;;
68229;SDS011;55048;52.220;5.160;2023-04-28T12:39:56;6.28;;;4.68;;
68229;SDS011;55048;52.220;5.160;2023-04-28T12:42:22;4.75;;;2.90;;
68229;SDS011;55048;52.220;5.160;2023-04-28T12:44:48;4.45;;;3.17;;
68229;SDS011;55048;52.220;5.160;2023-04-28T12:47:14;2.53;;;2.08;;
68229;SDS011;55048;52.220;5.160;2023-04-28T12:49:42;4.57;;;2.15;;
68229;SDS011;55048;52.220;5.160;2023-04-28T12:52:08;4.43;;;2.08;;
68229;SDS011;55048;52.220;5.160;2023-04-28T12:54:33;1.20;;;1.10;;
68229;SDS011;55048;52.220;5.160;2023-04-28T12:56:59;1.48;;;0.85;;
68229;SDS011;55048;52.220;5.160;2023-04-28T12:59:25;2.53;;;1.00;;
68229;SDS011;55048;52.220;5.160;2023-04-28T13:01:52;1.13;;;0.70;;
68229;SDS011;55048;52.220;5.160;2023-04-28T13:04:18;1.10;;;0.60;;
68229;SDS011;55048;52.220;5.160;2023-04-28T13:06:43;1.50;;;0.70;;
68229;SDS011;55048;52.220;5.160;2023-04-28T13:09:09;1.15;;;0.70;;
68229;SDS011;55048;52.220;5.160;2023-04-28T13:11:36;1.00;;;0.70;;
68229;SDS011;55048;52.220;5.160;2023-04-28T13:14:02;0.75;;;0.63;;
68229;SDS011;55048;52.220;5.160;2023-04-28T13:16:28;0.80;;;0.70;;
68229;SDS011;55048;52.220;5.160;2023-04-28T13:18:54;1.05;;;0.80;;
68229;SDS011;55048;52.220;5.160;2023-04-28T13:21:22;5.22;;;1.00;;
68229;SDS011;55048;52.220;5.160;2023-04-28T13:23:48;1.10;;;1.00;;
68229;SDS011;55048;52.220;5.160;2023-04-28T13:26:14;1.10;;;1.00;;
68229;SDS011;55048;52.220;5.160;2023-04-28T13:28:39;1.17;;;0.90;;
68229;SDS011;55048;52.220;5.160;2023-04-28T13:31:05;1.13;;;1.02;;
68229;SDS011;55048;52.220;5.160;2023-04-28T13:33:30;2.75;;;1.30;;
68229;SDS011;55048;52.220;5.160;2023-04-28T13:35:56;1.40;;;1.30;;
68229;SDS011;55048;52.220;5.160;2023-04-28T13:38:23;2.15;;;1.30;;
68229;SDS011;55048;52.220;5.160;2023-04-28T13:40:49;1.38;;;1.23;;
68229;SDS011;55048;52.220;5.160;2023-04-28T13:43:15;1.95;;;1.20;;
68229;SDS011;55048;52.220;5.160;2023-04-28T13:45:40;1.98;;;1.50;;
68229;SDS011;55048;52.220;5.160;2023-04-28T13:48:06;1.70;;;1.23;;
68229;SDS011;55048;52.220;5.160;2023-04-28T13:50:31;5.68;;;1.80;;
68229;SDS011;55048;52.220;5.160;2023-04-28T13:52:57;6.40;;;2.30;;
68229;SDS011;55048;52.220;5.160;2023-04-28T13:55:22;5.32;;;2.20;;
68229;SDS011;55048;52.220;5.160;2023-04-28T13:57:52;6.80;;;2.17;;
68229;SDS011;55048;52.220;5.160;2023-04-28T14:00:18;9.13;;;4.13;;
68229;SDS011;55048;52.220;5.160;2023-04-28T14:02:48;9.45;;;4.28;;
68229;SDS011;55048;52.220;5.160;2023-04-28T14:05:14;10.50;;;4.30;;
68229;SDS011;55048;52.220;5.160;2023-04-28T14:07:43;12.18;;;5.18;;
68229;SDS011;55048;52.220;5.160;2023-04-28T14:10:10;13.20;;;6.38;;
68229;SDS011;55048;52.220;5.160;2023-04-28T14:12:36;17.80;;;7.75;;
68229;SDS011;55048;52.220;5.160;2023-04-28T14:15:02;16.88;;;7.80;;
68229;SDS011;55048;52.220;5.160;2023-04-28T14:17:31;21.48;;;9.23;;
68229;SDS011;55048;52.220;5.160;2023-04-28T14:19:59;20.10;;;9.20;;
68229;SDS011;55048;52.220;5.160;2023-04-28T14:22:25;21.42;;;10.90;;
68229;SDS011;55048;52.220;5.160;2023-04-28T14:24:51;22.75;;;9.77;;
68229;SDS011;55048;52.220;5.160;2023-04-28T14:27:17;23.30;;;10.70;;
68229;SDS011;55048;52.220;5.160;2023-04-28T14:29:43;19.17;;;10.48;;
68229;SDS011;55048;52.220;5.160;2023-04-28T14:32:08;21.45;;;10.52;;
68229;SDS011;55048;52.220;5.160;2023-04-28T14:34:34;20.90;;;10.23;;
68229;SDS011;55048;52.220;5.160;2023-04-28T14:36:59;22.00;;;11.02;;
68229;SDS011;55048;52.220;5.160;2023-04-28T14:39:25;26.52;;;11.65;;
68229;SDS011;55048;52.220;5.160;2023-04-28T14:41:50;31.30;;;11.95;;
68229;SDS011;55048;52.220;5.160;2023-04-28T14:44:15;31.02;;;12.05;;
68229;SDS011;55048;52.220;5.160;2023-04-28T14:46:41;42.40;;;12.13;;
68229;SDS011;55048;52.220;5.160;2023-04-28T14:49:07;37.17;;;12.27;;
68229;SDS011;55048;52.220;5.160;2023-04-28T14:51:33;32.17;;;12.52;;
68229;SDS011;55048;52.220;5.160;2023-04-28T14:53:59;36.97;;;12.32;;
68229;SDS011;55048;52.220;5.160;2023-04-28T14:56:24;31.38;;;11.50;;
68229;SDS011;55048;52.220;5.160;2023-04-28T14:58:50;30.73;;;11.35;;
68229;SDS011;55048;52.220;5.160;2023-04-28T15:01:16;29.55;;;11.82;;
68229;SDS011;55048;52.220;5.160;2023-04-28T15:03:42;31.15;;;11.93;;
68229;SDS011;55048;52.220;5.160;2023-04-28T15:06:07;26.67;;;11.38;;
68229;SDS011;55048;52.220;5.160;2023-04-28T15:08:33;17.45;;;8.18;;